createdAt,value
2023-05-19T00:01:29.675Z,47.40
2023-05-19T00:06:31.764Z,47.67
2023-05-19T00:11:28.547Z,47.81
2023-05-19T00:16:25.510Z,47.65
2023-05-19T00:21:22.021Z,47.84
2023-05-19T00:26:18.489Z,47.86
2023-05-19T00:31:14.904Z,48.22
2023-05-19T00:36:11.259Z,48.07
2023-05-19T00:41:07.648Z,48.37
2023-05-19T00:46:04.740Z,48.49
2023-05-19T00:51:04.838Z,48.53
2023-05-19T00:56:01.703Z,48.50
2023-05-19T01:01:03.530Z,48.80
2023-05-19T01:06:05.102Z,48.98
2023-05-19T01:11:01.607Z,49.17
2023-05-19T01:16:00.029Z,49.21
2023-05-19T01:21:06.780Z,49.19
2023-05-19T01:26:10.040Z,49.32
2023-05-19T01:31:07.280Z,49.43
2023-05-19T01:36:03.785Z,49.36
2023-05-19T01:41:00.183Z,49.50
2023-05-19T01:45:58.561Z,49.30
2023-05-19T01:50:57.279Z,49.42
2023-05-19T01:55:54.479Z,49.56
2023-05-19T02:00:52.706Z,50.15
2023-05-19T02:05:53.488Z,49.75
2023-05-19T02:10:52.315Z,49.80
2023-05-19T02:15:48.755Z,50.14
2023-05-19T02:20:45.226Z,50.20
2023-05-19T02:25:41.593Z,50.37
2023-05-19T02:30:38.013Z,50.50
2023-05-19T02:35:34.390Z,50.52
2023-05-19T02:40:30.921Z,50.45
2023-05-19T02:45:28.638Z,50.52
2023-05-19T02:50:26.091Z,50.50
2023-05-19T02:55:22.420Z,50.60
2023-05-19T03:00:18.820Z,50.57
2023-05-19T03:05:15.212Z,50.93
2023-05-19T03:10:11.622Z,50.82
2023-05-19T03:15:08.476Z,50.98
2023-05-19T03:20:05.556Z,51.12
2023-05-19T03:25:02.294Z,50.86
2023-05-19T03:29:58.611Z,51.21
2023-05-19T03:34:58.378Z,51.15
2023-05-19T03:39:54.758Z,51.36
2023-05-19T03:44:51.090Z,51.12
2023-05-19T03:49:47.455Z,51.45
2023-05-19T03:54:43.875Z,51.62
2023-05-19T03:59:41.402Z,51.44
2023-05-19T04:04:37.976Z,51.57
2023-05-19T04:09:37.646Z,51.54
2023-05-19T04:14:34.041Z,51.70
2023-05-19T04:19:31.986Z,52.00
2023-05-19T04:24:28.389Z,51.83
2023-05-19T04:29:24.701Z,52.13
2023-05-19T04:34:21.709Z,52.34
2023-05-19T04:39:18.055Z,52.00
2023-05-19T04:44:18.056Z,52.38
2023-05-19T04:49:14.455Z,52.10
2023-05-19T04:54:10.884Z,52.27
2023-05-19T04:59:07.333Z,52.27
2023-05-19T05:04:03.812Z,52.39
2023-05-19T05:09:00.469Z,52.38
2023-05-19T05:13:58.248Z,52.41
2023-05-19T05:18:54.889Z,52.30
2023-05-19T05:23:51.937Z,52.45
2023-05-19T05:28:48.731Z,52.21
2023-05-19T05:33:45.161Z,52.57
2023-05-19T05:38:44.539Z,52.30
2023-05-19T05:43:41.071Z,52.59
2023-05-19T05:48:37.595Z,52.52
2023-05-19T05:53:34.429Z,52.55
2023-05-19T05:58:32.940Z,52.69
2023-05-19T06:03:29.326Z,52.53
2023-05-19T06:08:25.922Z,52.49
2023-05-19T06:13:24.160Z,52.28
2023-05-19T06:18:20.646Z,52.43
2023-05-19T06:23:19.315Z,51.97
2023-05-19T06:28:15.677Z,51.98
2023-05-19T06:33:12.013Z,51.58
2023-05-19T06:38:11.330Z,51.57
2023-05-19T06:43:07.690Z,51.42
2023-05-19T06:48:04.101Z,51.41
2023-05-19T06:53:00.613Z,51.14
2023-05-19T06:57:56.950Z,51.38
2023-05-19T07:02:53.441Z,51.32
2023-05-19T07:07:49.909Z,51.21
2023-05-19T07:12:46.237Z,51.49
2023-05-19T07:17:42.661Z,51.06
2023-05-19T07:22:39.949Z,51.30
2023-05-19T07:27:36.901Z,50.62
2023-05-19T07:32:33.349Z,50.43
2023-05-19T07:37:29.703Z,50.34
2023-05-19T07:42:26.070Z,50.36
2023-05-19T07:47:22.476Z,50.35
2023-05-19T07:52:21.538Z,49.86
2023-05-19T07:57:18.908Z,49.91
2023-05-19T08:02:15.439Z,49.98
2023-05-19T08:07:15.788Z,50.04
2023-05-19T08:12:12.194Z,49.49
2023-05-19T08:17:08.566Z,49.20
2023-05-19T08:22:04.924Z,48.87
2023-05-19T08:27:01.240Z,48.79
2023-05-19T08:31:58.377Z,48.59
2023-05-19T08:37:03.159Z,48.39
2023-05-19T08:41:59.520Z,48.26
2023-05-19T08:46:58.547Z,48.49
2023-05-19T08:52:03.745Z,47.73
2023-05-19T08:57:00.081Z,47.68
2023-05-19T09:01:56.461Z,47.71
2023-05-19T09:06:52.904Z,47.41
2023-05-19T09:11:49.350Z,47.39
2023-05-19T09:16:48.148Z,47.05
2023-05-19T09:21:45.782Z,47.10
2023-05-19T09:26:42.741Z,47.10
2023-05-19T09:31:39.623Z,47.04
2023-05-19T09:36:36.385Z,46.72
2023-05-19T09:41:32.773Z,46.35
2023-05-19T09:46:30.133Z,46.23
2023-05-19T09:51:29.540Z,46.16
2023-05-19T09:56:27.254Z,45.83
2023-05-19T10:01:23.656Z,45.47
2023-05-19T10:06:20.644Z,45.76
2023-05-19T10:11:17.081Z,45.76
2023-05-19T10:16:13.548Z,45.61
2023-05-19T10:21:09.944Z,45.39
2023-05-19T10:26:06.842Z,45.12
2023-05-19T10:31:04.452Z,45.03
2023-05-19T10:36:12.645Z,45.25
2023-05-19T10:41:27.662Z,45.01
2023-05-19T10:46:25.604Z,44.72
2023-05-19T10:51:28.360Z,44.53
2023-05-19T10:56:32.951Z,44.65
2023-05-19T11:01:33.149Z,44.03
2023-05-19T11:06:30.197Z,44.02
2023-05-19T11:11:26.975Z,44.27
2023-05-19T11:16:29.852Z,44.27
2023-05-19T11:21:42.601Z,44.16
2023-05-19T11:26:43.010Z,44.11
2023-05-19T11:31:39.544Z,43.47
2023-05-19T11:36:37.273Z,43.62
2023-05-19T11:41:38.340Z,43.24
2023-05-19T11:46:34.705Z,43.50
2023-05-19T11:51:32.592Z,42.96
2023-05-19T11:56:33.670Z,43.02
2023-05-19T12:01:31.751Z,42.44
2023-05-19T12:06:28.829Z,42.57
2023-05-19T12:11:25.246Z,42.41
2023-05-19T12:16:21.824Z,42.51
2023-05-19T12:21:18.209Z,42.33
2023-05-19T12:26:14.593Z,42.33
2023-05-19T12:31:11.334Z,41.70
2023-05-19T12:36:08.529Z,41.89
2023-05-19T12:41:06.350Z,41.54
2023-05-19T12:46:12.125Z,41.31
2023-05-19T12:51:08.552Z,41.59
2023-05-19T12:56:14.711Z,41.59
2023-05-19T13:01:15.857Z,41.33
2023-05-19T13:06:12.338Z,41.58
2023-05-19T13:11:09.107Z,41.39
2023-05-19T13:16:05.709Z,41.05
2023-05-19T13:21:02.095Z,40.89
2023-05-19T13:25:59.314Z,40.48
2023-05-19T13:30:55.801Z,40.67
2023-05-19T13:35:52.202Z,40.53
2023-05-19T13:40:48.593Z,40.59
2023-05-19T13:45:45.021Z,40.61
2023-05-19T13:50:41.388Z,40.59
2023-05-19T13:55:40.161Z,40.55
2023-05-19T14:00:36.814Z,40.13
2023-05-19T14:05:33.458Z,40.01
2023-05-19T14:10:29.815Z,40.27
2023-05-19T14:15:26.676Z,40.16
2023-05-19T14:20:23.082Z,40.00
2023-05-19T14:25:19.404Z,40.22
2023-05-19T14:30:15.779Z,40.29
2023-05-19T14:35:12.244Z,40.46
2023-05-19T14:40:08.776Z,40.04
2023-05-19T14:45:05.409Z,40.28
2023-05-19T14:50:01.822Z,40.11
2023-05-19T14:54:58.218Z,40.39
2023-05-19T14:59:54.536Z,40.16
2023-05-19T15:04:50.869Z,40.15
2023-05-19T15:09:47.216Z,40.56
2023-05-19T15:14:43.621Z,40.50
2023-05-19T15:19:42.659Z,40.16
2023-05-19T15:24:39.182Z,40.28
2023-05-19T15:29:35.816Z,40.63
2023-05-19T15:34:32.263Z,40.31
2023-05-19T15:39:29.751Z,40.60
2023-05-19T15:44:29.086Z,40.60
2023-05-19T15:49:25.697Z,40.42
2023-05-19T15:54:22.182Z,40.42
2023-05-19T15:59:21.724Z,40.46
2023-05-19T16:04:18.146Z,40.81
2023-05-19T16:09:14.613Z,40.73
2023-05-19T16:14:11.065Z,41.18
2023-05-19T16:19:07.465Z,40.87
2023-05-19T16:24:04.135Z,41.30
2023-05-19T16:29:00.629Z,41.33
2023-05-19T16:33:57.032Z,41.17
2023-05-19T16:38:54.118Z,41.39
2023-05-19T16:43:50.504Z,41.07
2023-05-19T16:48:46.894Z,41.17
2023-05-19T16:53:43.359Z,41.30
2023-05-19T16:58:39.724Z,41.37
2023-05-19T17:03:36.134Z,41.67
2023-05-19T17:08:32.593Z,41.58
2023-05-19T17:13:36.065Z,41.99
2023-05-19T17:18:32.406Z,42.04
2023-05-19T17:23:28.918Z,42.18
2023-05-19T17:28:25.372Z,42.19
2023-05-19T17:33:21.786Z,42.34
2023-05-19T17:38:18.109Z,42.53
2023-05-19T17:43:14.482Z,42.71
2023-05-19T17:48:11.667Z,43.13
2023-05-19T17:53:10.470Z,43.42
2023-05-19T17:58:06.901Z,43.30
2023-05-19T18:03:04.882Z,43.44
2023-05-19T18:08:05.004Z,43.86
2023-05-19T18:13:04.091Z,43.80
2023-05-19T18:18:01.048Z,43.99
2023-05-19T18:23:00.034Z,44.24
2023-05-19T18:27:56.502Z,44.32
2023-05-19T18:32:52.967Z,44.55
2023-05-19T18:37:49.424Z,44.34
2023-05-19T18:42:45.879Z,44.23
2023-05-19T18:47:42.498Z,44.21
2023-05-19T18:52:38.899Z,44.04
2023-05-19T18:57:35.236Z,44.56
2023-05-19T19:02:31.708Z,44.27
2023-05-19T19:07:28.048Z,44.29
2023-05-19T19:12:24.406Z,44.54
2023-05-19T19:17:20.914Z,44.64
2023-05-19T19:22:17.323Z,44.96
2023-05-19T19:27:16.187Z,44.70
2023-05-19T19:32:12.565Z,44.94
2023-05-19T19:37:08.958Z,45.09
2023-05-19T19:42:05.393Z,45.15
2023-05-19T19:47:05.919Z,45.40
2023-05-19T19:52:02.282Z,45.57
2023-05-19T19:56:58.677Z,45.80
2023-05-19T20:01:55.099Z,46.12
2023-05-19T20:06:51.529Z,46.06
2023-05-19T20:11:47.886Z,45.95
2023-05-19T20:16:44.702Z,46.29
2023-05-19T20:21:41.137Z,46.49
2023-05-19T20:26:37.476Z,46.34
2023-05-19T20:31:33.874Z,46.64
2023-05-19T20:36:30.234Z,46.55
2023-05-19T20:41:26.800Z,46.78
2023-05-19T20:46:23.143Z,46.90
2023-05-19T20:51:19.485Z,46.90
2023-05-19T20:56:15.996Z,47.02
2023-05-19T21:01:12.392Z,47.26
2023-05-19T21:06:08.839Z,46.98
2023-05-19T21:11:06.419Z,47.09
2023-05-19T21:16:02.768Z,46.97
2023-05-19T21:21:01.428Z,46.95
2023-05-19T21:25:59.544Z,46.69
2023-05-19T21:30:58.110Z,46.61
2023-05-19T21:35:54.445Z,46.76
2023-05-19T21:40:51.185Z,46.52
2023-05-19T21:45:47.563Z,46.25
2023-05-19T21:50:45.982Z,46.43
2023-05-19T21:55:42.611Z,46.11
2023-05-19T22:00:38.952Z,46.08
2023-05-19T22:05:40.272Z,45.97
2023-05-19T22:10:37.273Z,46.19
2023-05-19T22:15:33.740Z,45.97
2023-05-19T22:20:30.200Z,45.86
2023-05-19T22:25:26.864Z,45.68
2023-05-19T22:30:23.235Z,45.65
2023-05-19T22:35:19.609Z,45.49
2023-05-19T22:40:16.183Z,45.70
2023-05-19T22:45:12.577Z,45.34
2023-05-19T22:50:12.425Z,45.26
2023-05-19T22:55:08.983Z,45.34
2023-05-19T23:00:05.567Z,45.38
2023-05-19T23:05:02.023Z,45.52
2023-05-19T23:09:58.382Z,45.07
2023-05-19T23:14:54.759Z,44.97
2023-05-19T23:19:51.524Z,44.96
2023-05-19T23:24:47.913Z,45.17
2023-05-19T23:29:48.690Z,45.42
2023-05-19T23:34:46.795Z,45.14
2023-05-19T23:39:43.249Z,45.19
2023-05-19T23:44:39.624Z,45.20
2023-05-19T23:49:40.029Z,45.36
2023-05-19T23:54:36.447Z,45.29
2023-05-19T23:59:32.842Z,45.21
